createdAt,value
2018-12-18T00:03:19.516Z,27.30
2018-12-18T00:08:25.780Z,29.17
2018-12-18T00:13:30.033Z,28.77
2018-12-18T00:18:34.266Z,28.53
2018-12-18T00:23:38.358Z,27.70
2018-12-18T00:28:42.497Z,27.90
2018-12-18T00:33:46.592Z,29.67
2018-12-18T00:38:50.731Z,29.00
2018-12-18T00:43:54.844Z,28.63
2018-12-18T00:48:59.026Z,30.13
2018-12-18T00:54:03.116Z,28.83
2018-12-18T00:59:07.226Z,29.33
2018-12-18T01:04:11.319Z,32.90
2018-12-18T01:09:15.411Z,31.17
2018-12-18T01:14:20.405Z,30.67
2018-12-18T01:19:24.490Z,30.30
2018-12-18T01:24:28.863Z,30.57
2018-12-18T01:29:32.934Z,30.13
2018-12-18T01:34:37.010Z,32.80
2018-12-18T01:39:41.103Z,33.33
2018-12-18T01:44:45.210Z,32.33
2018-12-18T01:49:49.295Z,30.53
2018-12-18T01:54:53.399Z,29.30
2018-12-18T01:59:57.508Z,28.73
2018-12-18T02:05:01.605Z,29.17
2018-12-18T02:10:06.955Z,30.47
2018-12-18T02:15:11.059Z,32.43
2018-12-18T02:20:15.153Z,31.20
2018-12-18T02:25:19.241Z,30.97
2018-12-18T02:30:23.340Z,31.77
2018-12-18T02:35:27.425Z,34.03
2018-12-18T02:40:31.512Z,35.87
2018-12-18T02:45:35.684Z,31.37
2018-12-18T02:50:39.764Z,29.67
2018-12-18T02:55:43.856Z,31.90
2018-12-18T03:00:47.932Z,33.57
2018-12-18T03:05:52.035Z,31.13
2018-12-18T03:10:56.137Z,31.20
2018-12-18T03:16:00.251Z,31.27
2018-12-18T03:21:04.343Z,31.73
2018-12-18T03:26:08.461Z,31.23
2018-12-18T03:31:12.558Z,33.57
2018-12-18T03:36:16.687Z,32.00
2018-12-18T03:41:20.783Z,31.47
2018-12-18T03:46:24.876Z,36.07
2018-12-18T03:51:28.963Z,33.53
2018-12-18T03:56:33.073Z,33.43
2018-12-18T04:01:37.162Z,28.57
2018-12-18T04:06:41.379Z,31.10
2018-12-18T04:11:50.819Z,25.73
2018-12-18T04:16:54.932Z,27.07
2018-12-18T04:21:59.040Z,28.23
2018-12-18T04:27:03.242Z,28.23
2018-12-18T04:32:07.331Z,23.77
2018-12-18T04:37:12.562Z,28.87
2018-12-18T04:42:16.739Z,28.60
2018-12-18T04:47:20.859Z,27.73
2018-12-18T04:52:24.979Z,29.37
2018-12-18T04:57:29.098Z,27.33
2018-12-18T05:02:34.580Z,28.07
2018-12-18T05:07:39.699Z,27.50
2018-12-18T05:12:44.959Z,25.90
2018-12-18T05:17:50.174Z,24.80
2018-12-18T05:22:54.742Z,25.17
2018-12-18T05:27:59.933Z,28.83
2018-12-18T05:33:04.101Z,28.40
2018-12-18T05:38:10.251Z,26.63
2018-12-18T05:43:14.349Z,24.97
2018-12-18T05:48:19.338Z,25.77
2018-12-18T05:53:23.434Z,26.03
2018-12-18T05:58:27.531Z,35.03
2018-12-18T06:03:31.703Z,33.17
2018-12-18T06:08:35.798Z,29.93
2018-12-18T06:13:39.914Z,33.27
2018-12-18T06:18:44.021Z,32.83
2018-12-18T06:23:48.139Z,42.63
2018-12-18T06:28:52.415Z,35.37
2018-12-18T06:33:56.579Z,30.90
2018-12-18T06:39:00.362Z,35.77
2018-12-18T06:44:04.372Z,29.53
2018-12-18T06:49:08.497Z,32.07
2018-12-18T06:54:12.609Z,34.43
2018-12-18T06:59:16.693Z,36.83
2018-12-18T07:04:20.775Z,33.87
2018-12-18T07:09:24.866Z,36.43
2018-12-18T07:14:29.000Z,35.20
2018-12-18T07:19:33.219Z,30.70
2018-12-18T07:24:37.315Z,36.03
2018-12-18T07:29:41.113Z,35.80
2018-12-18T07:34:44.872Z,38.90
2018-12-18T07:39:48.958Z,41.70
2018-12-18T07:44:53.042Z,36.57
2018-12-18T07:49:57.147Z,35.53
2018-12-18T07:55:02.355Z,36.40
2018-12-18T08:00:06.719Z,33.30
2018-12-18T08:05:11.102Z,34.63
2018-12-18T08:10:15.275Z,37.97
2018-12-18T08:15:19.374Z,33.10
2018-12-18T08:20:23.496Z,38.63
2018-12-18T08:25:27.590Z,35.00
2018-12-18T08:30:31.691Z,33.70
2018-12-18T08:35:36.637Z,33.50
2018-12-18T08:40:40.998Z,31.67
2018-12-18T08:45:45.099Z,36.07
2018-12-18T08:50:49.327Z,30.80
2018-12-18T08:55:53.353Z,31.30
2018-12-18T09:00:57.363Z,31.03
2018-12-18T09:06:01.470Z,32.60
2018-12-18T09:11:05.562Z,31.63
2018-12-18T09:16:15.210Z,30.17
2018-12-18T09:21:19.317Z,27.63
2018-12-18T09:26:23.447Z,25.53
2018-12-18T09:31:27.634Z,25.83
2018-12-18T09:36:31.744Z,28.20
2018-12-18T09:41:39.830Z,27.83
2018-12-18T09:46:44.095Z,25.37
2018-12-18T09:51:48.194Z,26.90
2018-12-18T09:56:52.271Z,21.53
2018-12-18T10:01:56.418Z,20.33
2018-12-18T10:07:00.530Z,20.17
2018-12-18T10:12:04.877Z,21.40
2018-12-18T10:17:09.090Z,22.87
2018-12-18T10:22:12.889Z,23.90
2018-12-18T10:27:16.593Z,22.30
2018-12-18T10:32:20.418Z,23.70
2018-12-18T10:37:24.149Z,25.67
2018-12-18T10:42:27.941Z,23.57
2018-12-18T10:47:31.930Z,24.60
2018-12-18T10:52:38.961Z,23.73
2018-12-18T10:57:42.966Z,23.77
2018-12-18T11:02:46.732Z,25.23
2018-12-18T11:07:50.562Z,25.97
2018-12-18T11:12:59.858Z,26.20
2018-12-18T11:18:03.710Z,23.40
2018-12-18T11:23:07.485Z,23.23
2018-12-18T11:28:11.180Z,24.87
2018-12-18T11:33:15.890Z,20.27
2018-12-18T11:38:19.575Z,19.37
2018-12-18T11:43:23.273Z,21.23
2018-12-18T11:48:26.986Z,19.60
2018-12-18T11:53:31.450Z,22.07
2018-12-18T11:58:35.253Z,24.30
2018-12-18T12:03:39.250Z,21.37
2018-12-18T12:08:45.049Z,22.57
2018-12-18T12:13:49.111Z,27.50
2018-12-18T12:18:52.889Z,22.90
2018-12-18T12:23:58.231Z,22.73
2018-12-18T12:29:02.724Z,20.87
2018-12-18T12:34:06.971Z,23.20
2018-12-18T12:39:11.175Z,19.83
2018-12-18T12:44:15.888Z,22.43
2018-12-18T12:49:21.868Z,23.33
2018-12-18T12:54:25.737Z,23.47
2018-12-18T12:59:29.434Z,22.07
2018-12-18T13:04:33.153Z,22.67
2018-12-18T13:09:36.832Z,22.97
2018-12-18T13:14:40.551Z,23.43
2018-12-18T13:19:44.250Z,21.40
2018-12-18T13:24:49.062Z,19.63
2018-12-18T13:29:52.877Z,17.07
2018-12-18T13:34:56.898Z,15.77
2018-12-18T13:40:00.680Z,16.80
2018-12-18T13:45:04.542Z,17.27
2018-12-18T13:50:08.233Z,17.47
2018-12-18T13:55:11.925Z,19.53
2018-12-18T14:00:15.734Z,19.63
2018-12-18T14:05:19.430Z,19.13
2018-12-18T14:10:23.463Z,17.60
2018-12-18T14:15:27.369Z,20.93
2018-12-18T14:20:31.387Z,21.27
2018-12-18T14:25:35.181Z,18.47
2018-12-18T14:30:38.871Z,18.57
2018-12-18T14:35:42.558Z,15.57
2018-12-18T14:40:46.567Z,20.50
2018-12-18T14:45:50.336Z,17.07
2018-12-18T14:50:54.022Z,19.10
2018-12-18T14:55:57.770Z,17.63
2018-12-18T15:01:01.462Z,26.43
2018-12-18T15:06:06.166Z,19.93
2018-12-18T15:11:09.855Z,15.70
2018-12-18T15:16:13.589Z,17.10
2018-12-18T15:21:17.268Z,18.23
2018-12-18T15:26:21.090Z,17.97
2018-12-18T15:31:25.177Z,17.77
2018-12-18T15:36:29.664Z,18.17
2018-12-18T15:41:34.009Z,22.67
2018-12-18T15:46:38.285Z,19.70
2018-12-18T15:51:42.037Z,18.50
2018-12-18T15:56:45.775Z,19.63
2018-12-18T16:01:49.822Z,18.17
2018-12-18T16:06:54.053Z,17.13
2018-12-18T16:11:57.811Z,20.10
2018-12-18T16:17:03.101Z,17.67
2018-12-18T16:22:07.137Z,19.77
2018-12-18T16:27:11.099Z,16.00
2018-12-18T16:32:15.140Z,16.30
2018-12-18T16:37:22.958Z,16.97
2018-12-18T16:42:25.860Z,16.40
2018-12-18T16:47:30.594Z,18.97
2018-12-18T16:52:36.018Z,18.13
2018-12-18T16:57:40.323Z,17.60
2018-12-18T17:02:45.010Z,17.70
2018-12-18T17:07:49.292Z,18.23
2018-12-18T17:12:56.419Z,18.80
2018-12-18T17:18:00.479Z,16.80
2018-12-18T17:23:04.302Z,16.03
2018-12-18T17:28:08.897Z,17.53
2018-12-18T17:33:13.313Z,19.93
2018-12-18T17:38:17.393Z,18.77
2018-12-18T17:43:21.807Z,15.70
2018-12-18T17:48:25.909Z,13.87
2018-12-18T17:53:30.890Z,18.47
2018-12-18T17:58:35.621Z,25.27
2018-12-18T18:03:39.320Z,16.67
2018-12-18T18:08:43.197Z,16.63
2018-12-18T18:13:46.938Z,18.63
2018-12-18T18:18:50.629Z,19.53
2018-12-18T18:23:54.338Z,16.13
2018-12-18T18:28:58.362Z,17.93
2018-12-18T18:34:02.210Z,14.50
2018-12-18T18:39:07.045Z,12.83
2018-12-18T18:44:13.733Z,18.37
2018-12-18T18:49:18.953Z,13.70
2018-12-18T18:54:23.678Z,15.90
2018-12-18T18:59:27.464Z,18.23
2018-12-18T19:04:31.834Z,17.63
2018-12-18T19:09:36.630Z,16.30
2018-12-18T19:14:40.401Z,15.13
2018-12-18T19:19:44.185Z,17.00
2018-12-18T19:24:48.085Z,16.80
2018-12-18T19:29:51.887Z,16.97
2018-12-18T19:34:55.618Z,24.30
2018-12-18T19:39:59.654Z,20.67
2018-12-18T19:45:03.767Z,18.80
2018-12-18T19:50:07.691Z,16.17
2018-12-18T19:55:12.521Z,14.47
2018-12-18T20:00:17.366Z,18.73
2018-12-18T20:05:21.449Z,17.87
2018-12-18T20:10:25.362Z,18.10
2018-12-18T20:15:29.180Z,16.03
2018-12-18T20:20:33.886Z,16.60
2018-12-18T20:25:37.675Z,18.73
2018-12-18T20:30:41.856Z,19.73
2018-12-18T20:35:45.838Z,17.10
2018-12-18T20:40:50.618Z,16.20
2018-12-18T20:45:54.431Z,19.27
2018-12-18T20:50:58.117Z,19.40
2018-12-18T20:56:01.797Z,18.27
2018-12-18T21:01:06.899Z,26.00
2018-12-18T21:06:10.654Z,18.73
2018-12-18T21:11:14.535Z,18.13
2018-12-18T21:16:18.534Z,17.47
2018-12-18T21:21:22.305Z,17.40
2018-12-18T21:26:26.625Z,16.03
2018-12-18T21:31:30.598Z,16.90
2018-12-18T21:36:35.285Z,17.93
2018-12-18T21:41:39.546Z,20.47
2018-12-18T21:46:43.835Z,17.27
2018-12-18T21:51:48.395Z,17.27
2018-12-18T21:56:52.810Z,18.60
2018-12-18T22:01:56.933Z,19.10
2018-12-18T22:07:01.165Z,18.93
2018-12-18T22:12:05.291Z,16.67
2018-12-18T22:17:09.132Z,18.43
2018-12-18T22:22:13.768Z,16.33
2018-12-18T22:27:17.635Z,15.97
2018-12-18T22:32:21.741Z,15.37
2018-12-18T22:37:26.613Z,16.03
2018-12-18T22:42:31.385Z,15.70
2018-12-18T22:47:35.872Z,13.97
2018-12-18T22:52:40.615Z,15.47
2018-12-18T22:57:44.629Z,12.13
2018-12-18T23:02:49.729Z,14.93
2018-12-18T23:07:54.275Z,16.70
2018-12-18T23:12:59.403Z,14.40
2018-12-18T23:18:03.386Z,14.23
2018-12-18T23:23:07.943Z,13.30
2018-12-18T23:28:11.647Z,20.97
2018-12-18T23:33:15.728Z,16.57
2018-12-18T23:38:19.826Z,15.80
2018-12-18T23:43:23.756Z,16.47
2018-12-18T23:48:28.097Z,21.30
2018-12-18T23:53:31.880Z,19.63
2018-12-18T23:58:35.890Z,15.40
